sensor_id;sensor_type;location;lat;lon;timestamp;temperature;humidity
67157;SHT31;54086;50.126;8.710;2023-03-08T00:00:04;3.87;87.61
67157;SHT31;54086;50.126;8.710;2023-03-08T00:02:30;3.77;87.88
67157;SHT31;54086;50.126;8.710;2023-03-08T00:04:56;3.91;87.88
67157;SHT31;54086;50.126;8.710;2023-03-08T00:07:22;3.92;87.82
67157;SHT31;54086;50.126;8.710;2023-03-08T00:09:48;3.94;87.26
67157;SHT31;54086;50.126;8.710;2023-03-08T00:12:14;3.97;87.17
67157;SHT31;54086;50.126;8.710;2023-03-08T00:14:43;4.01;86.89
67157;SHT31;54086;50.126;8.710;2023-03-08T00:17:09;3.98;86.60
67157;SHT31;54086;50.126;8.710;2023-03-08T00:19:34;3.97;86.72
67157;SHT31;54086;50.126;8.710;2023-03-08T00:22:00;3.92;86.93
67157;SHT31;54086;50.126;8.710;2023-03-08T00:24:25;3.98;87.30
67157;SHT31;54086;50.126;8.710;2023-03-08T00:26:51;3.99;87.16
67157;SHT31;54086;50.126;8.710;2023-03-08T00:29:16;4.06;86.91
67157;SHT31;54086;50.126;8.710;2023-03-08T00:31:42;4.06;86.73
67157;SHT31;54086;50.126;8.710;2023-03-08T00:34:07;3.98;86.39
67157;SHT31;54086;50.126;8.710;2023-03-08T00:36:33;3.91;85.93
67157;SHT31;54086;50.126;8.710;2023-03-08T00:38:58;3.94;86.52
67157;SHT31;54086;50.126;8.710;2023-03-08T00:41:24;3.90;86.53
67157;SHT31;54086;50.126;8.710;2023-03-08T00:43:49;3.92;86.47
67157;SHT31;54086;50.126;8.710;2023-03-08T00:46:15;3.84;86.50
67157;SHT31;54086;50.126;8.710;2023-03-08T00:48:41;3.82;87.12
67157;SHT31;54086;50.126;8.710;2023-03-08T00:51:07;3.77;85.79
67157;SHT31;54086;50.126;8.710;2023-03-08T00:53:33;3.84;86.12
67157;SHT31;54086;50.126;8.710;2023-03-08T00:55:59;3.91;86.11
67157;SHT31;54086;50.126;8.710;2023-03-08T00:58:27;3.95;86.38
67157;SHT31;54086;50.126;8.710;2023-03-08T01:00:53;3.94;85.76
67157;SHT31;54086;50.126;8.710;2023-03-08T01:03:19;3.88;85.72
67157;SHT31;54086;50.126;8.710;2023-03-08T01:05:48;3.97;85.96
67157;SHT31;54086;50.126;8.710;2023-03-08T01:08:16;3.97;85.99
67157;SHT31;54086;50.126;8.710;2023-03-08T01:10:53;3.95;85.51
67157;SHT31;54086;50.126;8.710;2023-03-08T01:13:19;3.97;85.45
67157;SHT31;54086;50.126;8.710;2023-03-08T01:15:45;4.02;85.55
67157;SHT31;54086;50.126;8.710;2023-03-08T01:18:11;3.98;85.65
67157;SHT31;54086;50.126;8.710;2023-03-08T01:20:37;4.02;85.71
67157;SHT31;54086;50.126;8.710;2023-03-08T01:23:02;3.92;85.16
67157;SHT31;54086;50.126;8.710;2023-03-08T01:25:28;4.01;86.18
67157;SHT31;54086;50.126;8.710;2023-03-08T01:27:54;3.99;85.91
67157;SHT31;54086;50.126;8.710;2023-03-08T01:30:20;3.99;85.94
67157;SHT31;54086;50.126;8.710;2023-03-08T01:32:46;4.03;85.88
67157;SHT31;54086;50.126;8.710;2023-03-08T01:35:11;4.03;85.44
67157;SHT31;54086;50.126;8.710;2023-03-08T01:37:36;3.92;86.06
67157;SHT31;54086;50.126;8.710;2023-03-08T01:40:03;3.80;85.81
67157;SHT31;54086;50.126;8.710;2023-03-08T01:42:29;3.82;86.19
67157;SHT31;54086;50.126;8.710;2023-03-08T01:44:57;3.81;85.88
67157;SHT31;54086;50.126;8.710;2023-03-08T01:47:25;3.78;86.21
67157;SHT31;54086;50.126;8.710;2023-03-08T01:49:54;3.91;85.71
67157;SHT31;54086;50.126;8.710;2023-03-08T01:52:31;3.84;85.15
67157;SHT31;54086;50.126;8.710;2023-03-08T01:55:01;3.87;85.22
67157;SHT31;54086;50.126;8.710;2023-03-08T01:57:36;3.88;85.43
67157;SHT31;54086;50.126;8.710;2023-03-08T02:00:17;3.88;85.17
67157;SHT31;54086;50.126;8.710;2023-03-08T02:02:49;3.95;85.50
67157;SHT31;54086;50.126;8.710;2023-03-08T02:05:15;3.91;85.98
67157;SHT31;54086;50.126;8.710;2023-03-08T02:07:41;3.70;86.45
67157;SHT31;54086;50.126;8.710;2023-03-08T02:10:09;3.59;86.95
67157;SHT31;54086;50.126;8.710;2023-03-08T02:12:35;3.53;87.30
67157;SHT31;54086;50.126;8.710;2023-03-08T02:15:02;3.49;87.43
67157;SHT31;54086;50.126;8.710;2023-03-08T02:17:29;3.56;87.73
67157;SHT31;54086;50.126;8.710;2023-03-08T02:20:01;3.54;87.89
67157;SHT31;54086;50.126;8.710;2023-03-08T02:22:30;3.54;88.34
67157;SHT31;54086;50.126;8.710;2023-03-08T02:24:56;3.40;88.55
67157;SHT31;54086;50.126;8.710;2023-03-08T02:27:25;3.51;88.70
67157;SHT31;54086;50.126;8.710;2023-03-08T02:29:51;3.40;88.77
67157;SHT31;54086;50.126;8.710;2023-03-08T02:32:17;3.44;88.73
67157;SHT31;54086;50.126;8.710;2023-03-08T02:34:43;3.49;88.43
67157;SHT31;54086;50.126;8.710;2023-03-08T02:37:08;3.47;88.35
67157;SHT31;54086;50.126;8.710;2023-03-08T02:39:35;3.39;88.56
67157;SHT31;54086;50.126;8.710;2023-03-08T02:42:00;3.46;88.68
67157;SHT31;54086;50.126;8.710;2023-03-08T02:44:26;3.43;88.91
67157;SHT31;54086;50.126;8.710;2023-03-08T02:46:52;3.56;88.74
67157;SHT31;54086;50.126;8.710;2023-03-08T02:49:17;3.59;88.50
67157;SHT31;54086;50.126;8.710;2023-03-08T02:51:43;3.66;88.52
67157;SHT31;54086;50.126;8.710;2023-03-08T02:54:09;3.61;88.70
67157;SHT31;54086;50.126;8.710;2023-03-08T02:56:35;3.57;88.45
67157;SHT31;54086;50.126;8.710;2023-03-08T02:59:03;3.54;88.47
67157;SHT31;54086;50.126;8.710;2023-03-08T03:01:28;3.56;88.74
67157;SHT31;54086;50.126;8.710;2023-03-08T03:03:54;3.57;88.43
67157;SHT31;54086;50.126;8.710;2023-03-08T03:06:20;3.56;88.53
67157;SHT31;54086;50.126;8.710;2023-03-08T03:08:47;3.51;89.65
67157;SHT31;54086;50.126;8.710;2023-03-08T03:11:14;3.43;89.95
67157;SHT31;54086;50.126;8.710;2023-03-08T03:13:41;3.46;89.66
67157;SHT31;54086;50.126;8.710;2023-03-08T03:16:12;3.46;89.66
67157;SHT31;54086;50.126;8.710;2023-03-08T03:18:37;3.44;89.93
67157;SHT31;54086;50.126;8.710;2023-03-08T03:21:08;3.40;89.84
67157;SHT31;54086;50.126;8.710;2023-03-08T03:23:34;3.36;89.87
67157;SHT31;54086;50.126;8.710;2023-03-08T03:26:08;3.41;89.68
67157;SHT31;54086;50.126;8.710;2023-03-08T03:28:34;3.41;89.65
67157;SHT31;54086;50.126;8.710;2023-03-08T03:30:59;3.39;89.51
67157;SHT31;54086;50.126;8.710;2023-03-08T03:33:25;3.50;89.45
67157;SHT31;54086;50.126;8.710;2023-03-08T03:35:51;3.54;89.15
67157;SHT31;54086;50.126;8.710;2023-03-08T03:38:16;3.50;89.35
67157;SHT31;54086;50.126;8.710;2023-03-08T03:40:42;3.53;88.81
67157;SHT31;54086;50.126;8.710;2023-03-08T03:43:07;3.47;88.21
67157;SHT31;54086;50.126;8.710;2023-03-08T03:45:32;3.50;88.33
67157;SHT31;54086;50.126;8.710;2023-03-08T03:47:58;3.53;88.46
67157;SHT31;54086;50.126;8.710;2023-03-08T03:50:23;3.49;88.49
67157;SHT31;54086;50.126;8.710;2023-03-08T03:52:49;3.49;88.43
67157;SHT31;54086;50.126;8.710;2023-03-08T03:55:14;3.51;88.54
67157;SHT31;54086;50.126;8.710;2023-03-08T03:57:39;3.53;88.49
67157;SHT31;54086;50.126;8.710;2023-03-08T04:00:06;3.44;88.43
67157;SHT31;54086;50.126;8.710;2023-03-08T04:02:32;3.46;87.67
67157;SHT31;54086;50.126;8.710;2023-03-08T04:04:57;3.41;87.40
67157;SHT31;54086;50.126;8.710;2023-03-08T04:07:23;3.37;87.49
67157;SHT31;54086;50.126;8.710;2023-03-08T04:09:48;3.49;87.97
67157;SHT31;54086;50.126;8.710;2023-03-08T04:12:13;3.29;87.56
67157;SHT31;54086;50.126;8.710;2023-03-08T04:14:39;3.33;87.63
67157;SHT31;54086;50.126;8.710;2023-03-08T04:17:05;3.34;87.23
67157;SHT31;54086;50.126;8.710;2023-03-08T04:19:30;3.43;87.60
67157;SHT31;54086;50.126;8.710;2023-03-08T04:21:56;3.36;87.54
67157;SHT31;54086;50.126;8.710;2023-03-08T04:24:21;3.34;87.36
67157;SHT31;54086;50.126;8.710;2023-03-08T04:26:46;3.34;87.41
67157;SHT31;54086;50.126;8.710;2023-03-08T04:29:12;3.46;87.58
67157;SHT31;54086;50.126;8.710;2023-03-08T04:31:37;3.49;87.65
67157;SHT31;54086;50.126;8.710;2023-03-08T04:34:03;3.46;87.26
67157;SHT31;54086;50.126;8.710;2023-03-08T04:36:29;3.53;87.14
67157;SHT31;54086;50.126;8.710;2023-03-08T04:38:55;3.51;86.89
67157;SHT31;54086;50.126;8.710;2023-03-08T04:41:20;3.53;87.02
67157;SHT31;54086;50.126;8.710;2023-03-08T04:43:50;3.49;86.50
67157;SHT31;54086;50.126;8.710;2023-03-08T04:46:18;3.57;86.39
67157;SHT31;54086;50.126;8.710;2023-03-08T04:48:44;3.67;86.82
67157;SHT31;54086;50.126;8.710;2023-03-08T04:51:11;3.70;86.67
67157;SHT31;54086;50.126;8.710;2023-03-08T04:53:38;3.66;86.85
67157;SHT31;54086;50.126;8.710;2023-03-08T04:56:06;3.78;86.88
67157;SHT31;54086;50.126;8.710;2023-03-08T04:58:32;3.73;86.81
67157;SHT31;54086;50.126;8.710;2023-03-08T05:00:58;3.80;86.75
67157;SHT31;54086;50.126;8.710;2023-03-08T05:03:24;3.80;86.71
67157;SHT31;54086;50.126;8.710;2023-03-08T05:05:54;3.84;86.64
67157;SHT31;54086;50.126;8.710;2023-03-08T05:08:20;3.87;86.30
67157;SHT31;54086;50.126;8.710;2023-03-08T05:10:53;3.88;85.72
67157;SHT31;54086;50.126;8.710;2023-03-08T05:13:19;3.88;85.86
67157;SHT31;54086;50.126;8.710;2023-03-08T05:15:44;3.84;86.33
67157;SHT31;54086;50.126;8.710;2023-03-08T05:18:10;3.75;86.33
67157;SHT31;54086;50.126;8.710;2023-03-08T05:20:35;3.85;85.61
67157;SHT31;54086;50.126;8.710;2023-03-08T05:23:00;3.81;85.93
67157;SHT31;54086;50.126;8.710;2023-03-08T05:25:26;3.81;86.59
67157;SHT31;54086;50.126;8.710;2023-03-08T05:27:52;3.70;85.72
67157;SHT31;54086;50.126;8.710;2023-03-08T05:30:18;3.74;86.03
67157;SHT31;54086;50.126;8.710;2023-03-08T05:32:43;3.77;85.51
67157;SHT31;54086;50.126;8.710;2023-03-08T05:35:09;3.77;85.91
67157;SHT31;54086;50.126;8.710;2023-03-08T05:37:34;3.81;85.65
67157;SHT31;54086;50.126;8.710;2023-03-08T05:39:59;3.87;84.61
67157;SHT31;54086;50.126;8.710;2023-03-08T05:42:25;3.85;84.05
67157;SHT31;54086;50.126;8.710;2023-03-08T05:44:51;3.82;83.76
67157;SHT31;54086;50.126;8.710;2023-03-08T05:47:17;3.75;83.83
67157;SHT31;54086;50.126;8.710;2023-03-08T05:49:42;3.80;83.94
67157;SHT31;54086;50.126;8.710;2023-03-08T05:52:08;3.75;84.33
67157;SHT31;54086;50.126;8.710;2023-03-08T05:54:33;3.69;84.93
67157;SHT31;54086;50.126;8.710;2023-03-08T05:56:58;3.59;85.37
67157;SHT31;54086;50.126;8.710;2023-03-08T05:59:24;3.51;86.12
67157;SHT31;54086;50.126;8.710;2023-03-08T06:01:50;3.46;86.28
67157;SHT31;54086;50.126;8.710;2023-03-08T06:04:16;3.51;86.93
67157;SHT31;54086;50.126;8.710;2023-03-08T06:06:41;3.50;86.82
67157;SHT31;54086;50.126;8.710;2023-03-08T06:09:07;3.43;86.50
67157;SHT31;54086;50.126;8.710;2023-03-08T06:11:32;3.46;86.91
67157;SHT31;54086;50.126;8.710;2023-03-08T06:13:58;3.36;86.99
67157;SHT31;54086;50.126;8.710;2023-03-08T06:16:23;3.37;87.66
67157;SHT31;54086;50.126;8.710;2023-03-08T06:18:48;3.44;87.67
67157;SHT31;54086;50.126;8.710;2023-03-08T06:21:16;3.47;87.81
67157;SHT31;54086;50.126;8.710;2023-03-08T06:23:42;3.40;87.71
67157;SHT31;54086;50.126;8.710;2023-03-08T06:26:09;3.40;87.67
67157;SHT31;54086;50.126;8.710;2023-03-08T06:28:35;3.31;88.10
67157;SHT31;54086;50.126;8.710;2023-03-08T06:31:02;3.33;87.98
67157;SHT31;54086;50.126;8.710;2023-03-08T06:33:29;3.30;88.31
67157;SHT31;54086;50.126;8.710;2023-03-08T06:36:02;3.15;88.21
67157;SHT31;54086;50.126;8.710;2023-03-08T06:38:30;3.22;88.43
67157;SHT31;54086;50.126;8.710;2023-03-08T06:40:56;3.15;88.58
67157;SHT31;54086;50.126;8.710;2023-03-08T06:43:22;3.05;88.64
67157;SHT31;54086;50.126;8.710;2023-03-08T06:45:48;3.10;89.31
67157;SHT31;54086;50.126;8.710;2023-03-08T06:48:13;3.09;88.60
67157;SHT31;54086;50.126;8.710;2023-03-08T06:50:39;3.06;88.91
67157;SHT31;54086;50.126;8.710;2023-03-08T06:53:05;3.06;88.72
67157;SHT31;54086;50.126;8.710;2023-03-08T06:55:30;3.08;89.01
67157;SHT31;54086;50.126;8.710;2023-03-08T06:57:56;2.98;89.01
67157;SHT31;54086;50.126;8.710;2023-03-08T07:00:22;3.01;89.36
67157;SHT31;54086;50.126;8.710;2023-03-08T07:02:47;2.95;89.84
67157;SHT31;54086;50.126;8.710;2023-03-08T07:05:14;2.93;89.79
67157;SHT31;54086;50.126;8.710;2023-03-08T07:07:41;2.79;89.78
67157;SHT31;54086;50.126;8.710;2023-03-08T07:10:07;2.78;89.74
67157;SHT31;54086;50.126;8.710;2023-03-08T07:12:35;2.70;90.04
67157;SHT31;54086;50.126;8.710;2023-03-08T07:15:07;2.66;90.02
67157;SHT31;54086;50.126;8.710;2023-03-08T07:17:32;2.81;90.53
67157;SHT31;54086;50.126;8.710;2023-03-08T07:19:59;2.77;90.49
67157;SHT31;54086;50.126;8.710;2023-03-08T07:22:25;2.57;90.26
67157;SHT31;54086;50.126;8.710;2023-03-08T07:24:50;2.60;90.82
67157;SHT31;54086;50.126;8.710;2023-03-08T07:27:16;2.68;91.09
67157;SHT31;54086;50.126;8.710;2023-03-08T07:29:42;2.65;91.24
67157;SHT31;54086;50.126;8.710;2023-03-08T07:32:07;2.62;91.14
67157;SHT31;54086;50.126;8.710;2023-03-08T07:34:33;2.55;91.21
67157;SHT31;54086;50.126;8.710;2023-03-08T07:36:58;2.45;91.47
67157;SHT31;54086;50.126;8.710;2023-03-08T07:39:24;2.55;92.05
67157;SHT31;54086;50.126;8.710;2023-03-08T07:41:49;2.47;91.77
67157;SHT31;54086;50.126;8.710;2023-03-08T07:44:15;2.40;91.81
67157;SHT31;54086;50.126;8.710;2023-03-08T07:46:40;2.47;92.21
67157;SHT31;54086;50.126;8.710;2023-03-08T07:49:05;2.44;91.91
67157;SHT31;54086;50.126;8.710;2023-03-08T07:51:35;2.34;91.95
67157;SHT31;54086;50.126;8.710;2023-03-08T07:54:01;2.37;91.99
67157;SHT31;54086;50.126;8.710;2023-03-08T07:56:26;2.33;91.98
67157;SHT31;54086;50.126;8.710;2023-03-08T07:58:52;2.34;92.51
67157;SHT31;54086;50.126;8.710;2023-03-08T08:01:19;2.36;92.34
67157;SHT31;54086;50.126;8.710;2023-03-08T08:03:45;2.21;92.35
67157;SHT31;54086;50.126;8.710;2023-03-08T08:06:10;2.34;92.72
67157;SHT31;54086;50.126;8.710;2023-03-08T08:08:36;2.38;92.77
67157;SHT31;54086;50.126;8.710;2023-03-08T08:11:01;2.34;92.97
67157;SHT31;54086;50.126;8.710;2023-03-08T08:13:26;2.21;92.82
67157;SHT31;54086;50.126;8.710;2023-03-08T08:15:59;2.16;92.88
67157;SHT31;54086;50.126;8.710;2023-03-08T08:18:25;2.13;92.87
67157;SHT31;54086;50.126;8.710;2023-03-08T08:21:08;2.21;93.28
67157;SHT31;54086;50.126;8.710;2023-03-08T08:23:34;2.10;92.82
67157;SHT31;54086;50.126;8.710;2023-03-08T08:26:03;2.06;93.11
67157;SHT31;54086;50.126;8.710;2023-03-08T08:28:29;2.14;93.48
67157;SHT31;54086;50.126;8.710;2023-03-08T08:31:00;2.05;93.36
67157;SHT31;54086;50.126;8.710;2023-03-08T08:33:27;2.09;93.27
67157;SHT31;54086;50.126;8.710;2023-03-08T08:35:53;1.98;93.04
67157;SHT31;54086;50.126;8.710;2023-03-08T08:38:18;1.90;93.33
67157;SHT31;54086;50.126;8.710;2023-03-08T08:40:44;1.96;93.48
67157;SHT31;54086;50.126;8.710;2023-03-08T08:43:10;1.93;93.47
67157;SHT31;54086;50.126;8.710;2023-03-08T08:45:36;1.87;93.41
67157;SHT31;54086;50.126;8.710;2023-03-08T08:48:01;1.85;93.76
67157;SHT31;54086;50.126;8.710;2023-03-08T08:50:27;1.79;93.69
67157;SHT31;54086;50.126;8.710;2023-03-08T08:52:52;1.71;93.58
67157;SHT31;54086;50.126;8.710;2023-03-08T08:55:17;1.73;94.02
67157;SHT31;54086;50.126;8.710;2023-03-08T08:57:43;1.73;93.92
67157;SHT31;54086;50.126;8.710;2023-03-08T09:00:09;1.68;93.78
67157;SHT31;54086;50.126;8.710;2023-03-08T09:02:35;1.62;93.87
67157;SHT31;54086;50.126;8.710;2023-03-08T09:05:00;1.62;93.88
67157;SHT31;54086;50.126;8.710;2023-03-08T09:07:26;1.59;93.98
67157;SHT31;54086;50.126;8.710;2023-03-08T09:09:53;1.54;93.94
67157;SHT31;54086;50.126;8.710;2023-03-08T09:12:19;1.50;94.02
67157;SHT31;54086;50.126;8.710;2023-03-08T09:14:45;1.51;94.13
67157;SHT31;54086;50.126;8.710;2023-03-08T09:17:11;1.51;94.13
67157;SHT31;54086;50.126;8.710;2023-03-08T09:19:36;1.48;94.27
67157;SHT31;54086;50.126;8.710;2023-03-08T09:22:02;1.50;94.29
67157;SHT31;54086;50.126;8.710;2023-03-08T09:24:27;1.61;94.36
67157;SHT31;54086;50.126;8.710;2023-03-08T09:26:52;1.62;94.15
67157;SHT31;54086;50.126;8.710;2023-03-08T09:29:18;1.62;94.31
67157;SHT31;54086;50.126;8.710;2023-03-08T09:31:43;1.68;94.21
67157;SHT31;54086;50.126;8.710;2023-03-08T09:34:11;1.52;93.97
67157;SHT31;54086;50.126;8.710;2023-03-08T09:36:39;1.73;94.29
67157;SHT31;54086;50.126;8.710;2023-03-08T09:39:04;1.65;93.89
67157;SHT31;54086;50.126;8.710;2023-03-08T09:41:47;1.73;93.83
67157;SHT31;54086;50.126;8.710;2023-03-08T09:49:24;1.72;94.02
67157;SHT31;54086;50.126;8.710;2023-03-08T09:52:13;1.62;93.73
67157;SHT31;54086;50.126;8.710;2023-03-08T09:54:42;1.71;94.03
67157;SHT31;54086;50.126;8.710;2023-03-08T09:57:17;1.68;93.92
67157;SHT31;54086;50.126;8.710;2023-03-08T10:08:17;1.68;94.30
67157;SHT31;54086;50.126;8.710;2023-03-08T10:15:54;1.75;94.09
67157;SHT31;54086;50.126;8.710;2023-03-08T10:18:36;1.72;93.93
67157;SHT31;54086;50.126;8.710;2023-03-08T10:21:03;1.78;94.11
67157;SHT31;54086;50.126;8.710;2023-03-08T10:23:30;1.71;93.88
67157;SHT31;54086;50.126;8.710;2023-03-08T10:25:59;1.69;93.90
67157;SHT31;54086;50.126;8.710;2023-03-08T10:28:25;1.66;94.00
67157;SHT31;54086;50.126;8.710;2023-03-08T10:30:53;1.62;94.12
67157;SHT31;54086;50.126;8.710;2023-03-08T10:33:21;1.68;94.19
67157;SHT31;54086;50.126;8.710;2023-03-08T10:38:22;1.75;94.37
67157;SHT31;54086;50.126;8.710;2023-03-08T10:40:48;1.87;94.43
67157;SHT31;54086;50.126;8.710;2023-03-08T10:43:27;1.89;94.48
67157;SHT31;54086;50.126;8.710;2023-03-08T10:46:04;2.00;94.37
67157;SHT31;54086;50.126;8.710;2023-03-08T10:48:30;1.96;93.99
67157;SHT31;54086;50.126;8.710;2023-03-08T10:51:04;1.85;94.03
67157;SHT31;54086;50.126;8.710;2023-03-08T10:53:31;1.92;94.22
67157;SHT31;54086;50.126;8.710;2023-03-08T10:55:58;2.06;94.29
67157;SHT31;54086;50.126;8.710;2023-03-08T10:58:36;2.17;94.65
67157;SHT31;54086;50.126;8.710;2023-03-08T11:01:21;2.10;94.38
67157;SHT31;54086;50.126;8.710;2023-03-08T11:03:57;2.16;94.62
67157;SHT31;54086;50.126;8.710;2023-03-08T11:06:26;2.03;94.32
67157;SHT31;54086;50.126;8.710;2023-03-08T11:08:57;1.89;94.21
67157;SHT31;54086;50.126;8.710;2023-03-08T11:11:24;2.00;94.32
67157;SHT31;54086;50.126;8.710;2023-03-08T11:13:51;1.95;94.14
67157;SHT31;54086;50.126;8.710;2023-03-08T11:21:25;1.82;94.21
67157;SHT31;54086;50.126;8.710;2023-03-08T11:32:00;2.17;94.46
67157;SHT31;54086;50.126;8.710;2023-03-08T11:34:38;2.38;94.43
67157;SHT31;54086;50.126;8.710;2023-03-08T11:37:17;2.31;94.15
67157;SHT31;54086;50.126;8.710;2023-03-08T11:42:46;2.33;94.29
67157;SHT31;54086;50.126;8.710;2023-03-08T11:45:37;2.33;94.29
67157;SHT31;54086;50.126;8.710;2023-03-08T11:50:38;2.45;94.45
67157;SHT31;54086;50.126;8.710;2023-03-08T11:56:13;2.70;94.46
67157;SHT31;54086;50.126;8.710;2023-03-08T11:58:49;2.82;94.78
67157;SHT31;54086;50.126;8.710;2023-03-08T12:01:21;2.71;94.46
67157;SHT31;54086;50.126;8.710;2023-03-08T12:03:54;2.70;94.45
67157;SHT31;54086;50.126;8.710;2023-03-08T12:06:24;2.74;94.55
67157;SHT31;54086;50.126;8.710;2023-03-08T12:09:03;2.74;94.32
67157;SHT31;54086;50.126;8.710;2023-03-08T12:11:40;2.85;94.26
67157;SHT31;54086;50.126;8.710;2023-03-08T12:14:29;2.89;93.85
67157;SHT31;54086;50.126;8.710;2023-03-08T12:17:14;3.01;94.61
67157;SHT31;54086;50.126;8.710;2023-03-08T12:19:56;2.87;94.30
67157;SHT31;54086;50.126;8.710;2023-03-08T12:32:43;2.88;94.14
67157;SHT31;54086;50.126;8.710;2023-03-08T12:40:28;2.93;94.29
67157;SHT31;54086;50.126;8.710;2023-03-08T12:45:33;3.03;94.78
67157;SHT31;54086;50.126;8.710;2023-03-08T12:50:38;3.18;94.52
67157;SHT31;54086;50.126;8.710;2023-03-08T12:53:28;3.09;94.37
67157;SHT31;54086;50.126;8.710;2023-03-08T12:56:02;3.23;94.81
67157;SHT31;54086;50.126;8.710;2023-03-08T12:58:29;3.16;94.59
67157;SHT31;54086;50.126;8.710;2023-03-08T13:01:03;3.19;94.37
67157;SHT31;54086;50.126;8.710;2023-03-08T13:03:37;3.27;94.77
67157;SHT31;54086;50.126;8.710;2023-03-08T13:08:52;3.33;94.68
67157;SHT31;54086;50.126;8.710;2023-03-08T13:11:21;3.29;94.56
67157;SHT31;54086;50.126;8.710;2023-03-08T13:13:54;3.37;94.76
67157;SHT31;54086;50.126;8.710;2023-03-08T13:16:34;3.30;94.49
67157;SHT31;54086;50.126;8.710;2023-03-08T13:21:45;3.46;94.64
67157;SHT31;54086;50.126;8.710;2023-03-08T13:24:29;3.54;94.65
67157;SHT31;54086;50.126;8.710;2023-03-08T13:29:42;3.61;94.30
67157;SHT31;54086;50.126;8.710;2023-03-08T13:32:14;3.73;94.76
67157;SHT31;54086;50.126;8.710;2023-03-08T13:34:40;3.69;94.63
67157;SHT31;54086;50.126;8.710;2023-03-08T13:37:22;3.60;94.13
67157;SHT31;54086;50.126;8.710;2023-03-08T13:39:56;3.60;93.76
67157;SHT31;54086;50.126;8.710;2023-03-08T13:42:23;3.63;94.13
67157;SHT31;54086;50.126;8.710;2023-03-08T13:45:04;3.75;94.54
67157;SHT31;54086;50.126;8.710;2023-03-08T13:47:33;3.69;94.19
67157;SHT31;54086;50.126;8.710;2023-03-08T13:49:59;3.77;94.07
67157;SHT31;54086;50.126;8.710;2023-03-08T13:52:31;3.75;94.11
67157;SHT31;54086;50.126;8.710;2023-03-08T13:55:03;3.80;94.24
67157;SHT31;54086;50.126;8.710;2023-03-08T13:57:31;3.91;94.45
67157;SHT31;54086;50.126;8.710;2023-03-08T14:02:45;3.87;94.14
67157;SHT31;54086;50.126;8.710;2023-03-08T14:05:23;3.95;94.50
67157;SHT31;54086;50.126;8.710;2023-03-08T14:10:46;3.87;94.43
67157;SHT31;54086;50.126;8.710;2023-03-08T14:13:19;3.97;94.67
67157;SHT31;54086;50.126;8.710;2023-03-08T14:15:52;3.98;94.29
67157;SHT31;54086;50.126;8.710;2023-03-08T14:18:33;4.06;94.48
67157;SHT31;54086;50.126;8.710;2023-03-08T14:21:01;4.05;94.21
67157;SHT31;54086;50.126;8.710;2023-03-08T14:23:27;4.09;94.18
67157;SHT31;54086;50.126;8.710;2023-03-08T14:25:57;4.02;94.29
67157;SHT31;54086;50.126;8.710;2023-03-08T14:28:38;4.09;94.45
67157;SHT31;54086;50.126;8.710;2023-03-08T14:31:25;4.15;94.34
67157;SHT31;54086;50.126;8.710;2023-03-08T14:34:02;4.12;94.19
67157;SHT31;54086;50.126;8.710;2023-03-08T14:36:30;4.19;94.23
67157;SHT31;54086;50.126;8.710;2023-03-08T14:38:58;4.32;94.13
67157;SHT31;54086;50.126;8.710;2023-03-08T14:41:32;4.30;94.17
67157;SHT31;54086;50.126;8.710;2023-03-08T14:43:59;4.39;94.33
67157;SHT31;54086;50.126;8.710;2023-03-08T14:46:25;4.42;93.91
67157;SHT31;54086;50.126;8.710;2023-03-08T14:49:03;4.46;93.62
67157;SHT31;54086;50.126;8.710;2023-03-08T14:51:38;4.46;93.64
67157;SHT31;54086;50.126;8.710;2023-03-08T14:54:33;4.49;94.18
67157;SHT31;54086;50.126;8.710;2023-03-08T14:57:23;4.48;94.10
67157;SHT31;54086;50.126;8.710;2023-03-08T14:59:50;4.35;94.04
67157;SHT31;54086;50.126;8.710;2023-03-08T15:02:16;4.42;94.11
67157;SHT31;54086;50.126;8.710;2023-03-08T15:04:43;4.43;94.41
67157;SHT31;54086;50.126;8.710;2023-03-08T15:07:18;4.46;94.59
67157;SHT31;54086;50.126;8.710;2023-03-08T15:09:46;4.40;94.67
67157;SHT31;54086;50.126;8.710;2023-03-08T15:12:11;4.36;94.54
67157;SHT31;54086;50.126;8.710;2023-03-08T15:14:38;4.45;94.68
67157;SHT31;54086;50.126;8.710;2023-03-08T15:17:04;4.38;94.66
67157;SHT31;54086;50.126;8.710;2023-03-08T15:19:30;4.36;94.71
67157;SHT31;54086;50.126;8.710;2023-03-08T15:21:55;4.40;94.72
67157;SHT31;54086;50.126;8.710;2023-03-08T15:24:21;4.33;94.84
67157;SHT31;54086;50.126;8.710;2023-03-08T15:26:46;4.43;94.81
67157;SHT31;54086;50.126;8.710;2023-03-08T15:32:28;4.18;94.05
67157;SHT31;54086;50.126;8.710;2023-03-08T15:34:54;4.22;93.91
67157;SHT31;54086;50.126;8.710;2023-03-08T15:37:20;4.09;94.00
67157;SHT31;54086;50.126;8.710;2023-03-08T15:39:45;4.19;94.32
67157;SHT31;54086;50.126;8.710;2023-03-08T15:42:11;4.28;94.35
67157;SHT31;54086;50.126;8.710;2023-03-08T15:44:36;4.36;94.70
67157;SHT31;54086;50.126;8.710;2023-03-08T15:47:01;4.43;94.51
67157;SHT31;54086;50.126;8.710;2023-03-08T15:49:27;4.48;94.20
67157;SHT31;54086;50.126;8.710;2023-03-08T15:51:52;4.49;94.28
67157;SHT31;54086;50.126;8.710;2023-03-08T15:54:18;4.57;94.24
67157;SHT31;54086;50.126;8.710;2023-03-08T15:56:43;4.59;94.22
67157;SHT31;54086;50.126;8.710;2023-03-08T15:59:09;4.60;94.25
67157;SHT31;54086;50.126;8.710;2023-03-08T16:01:34;4.66;94.62
67157;SHT31;54086;50.126;8.710;2023-03-08T16:03:59;4.81;94.36
67157;SHT31;54086;50.126;8.710;2023-03-08T16:06:25;4.85;94.11
67157;SHT31;54086;50.126;8.710;2023-03-08T16:08:51;4.77;93.79
67157;SHT31;54086;50.126;8.710;2023-03-08T16:11:17;4.74;93.40
67157;SHT31;54086;50.126;8.710;2023-03-08T16:13:47;4.67;93.25
67157;SHT31;54086;50.126;8.710;2023-03-08T16:16:14;4.73;93.42
67157;SHT31;54086;50.126;8.710;2023-03-08T16:18:39;4.70;93.36
67157;SHT31;54086;50.126;8.710;2023-03-08T16:21:07;4.53;93.33
67157;SHT31;54086;50.126;8.710;2023-03-08T16:23:33;4.61;93.74
67157;SHT31;54086;50.126;8.710;2023-03-08T16:26:05;4.59;93.35
67157;SHT31;54086;50.126;8.710;2023-03-08T16:28:30;4.59;93.60
67157;SHT31;54086;50.126;8.710;2023-03-08T16:30:56;4.59;93.72
67157;SHT31;54086;50.126;8.710;2023-03-08T16:33:22;4.57;93.69
67157;SHT31;54086;50.126;8.710;2023-03-08T16:35:51;4.67;93.77
67157;SHT31;54086;50.126;8.710;2023-03-08T16:38:17;4.67;93.50
67157;SHT31;54086;50.126;8.710;2023-03-08T16:40:43;4.67;93.39
67157;SHT31;54086;50.126;8.710;2023-03-08T16:43:08;4.70;93.39
67157;SHT31;54086;50.126;8.710;2023-03-08T16:45:35;4.83;93.32
67157;SHT31;54086;50.126;8.710;2023-03-08T16:48:00;4.79;93.45
67157;SHT31;54086;50.126;8.710;2023-03-08T16:50:26;4.76;93.74
67157;SHT31;54086;50.126;8.710;2023-03-08T16:52:56;4.73;93.54
67157;SHT31;54086;50.126;8.710;2023-03-08T16:55:22;4.67;93.79
67157;SHT31;54086;50.126;8.710;2023-03-08T16:57:48;4.53;94.16
67157;SHT31;54086;50.126;8.710;2023-03-08T17:00:14;4.50;94.11
67157;SHT31;54086;50.126;8.710;2023-03-08T17:02:40;4.66;94.75
67157;SHT31;54086;50.126;8.710;2023-03-08T17:05:06;4.66;94.20
67157;SHT31;54086;50.126;8.710;2023-03-08T17:07:31;4.71;94.38
67157;SHT31;54086;50.126;8.710;2023-03-08T17:09:57;4.74;94.28